sensor_id;sensor_type;location;lat;lon;timestamp;P1;durP1;ratioP1;P2;durP2;ratioP2
8986;SDS011;4529;51.360;12.474;2022-09-12T00:04:46;8.90;;;7.10;;
8986;SDS011;4529;51.360;12.474;2022-09-12T00:09:49;8.77;;;6.83;;
8986;SDS011;4529;51.360;12.474;2022-09-12T00:14:53;8.03;;;6.70;;
8986;SDS011;4529;51.360;12.474;2022-09-12T00:19:56;9.33;;;6.60;;
8986;SDS011;4529;51.360;12.474;2022-09-12T00:25:00;8.40;;;6.83;;
8986;SDS011;4529;51.360;12.474;2022-09-12T00:30:03;10.03;;;7.03;;
8986;SDS011;4529;51.360;12.474;2022-09-12T00:35:07;9.73;;;6.93;;
8986;SDS011;4529;51.360;12.474;2022-09-12T00:40:10;10.03;;;7.00;;
8986;SDS011;4529;51.360;12.474;2022-09-12T00:45:19;9.33;;;7.07;;
8986;SDS011;4529;51.360;12.474;2022-09-12T00:50:17;9.43;;;7.50;;
8986;SDS011;4529;51.360;12.474;2022-09-12T00:55:21;9.17;;;7.47;;
8986;SDS011;4529;51.360;12.474;2022-09-12T01:00:24;8.60;;;6.97;;
8986;SDS011;4529;51.360;12.474;2022-09-12T01:05:28;10.43;;;7.13;;
8986;SDS011;4529;51.360;12.474;2022-09-12T01:10:33;9.47;;;7.27;;
8986;SDS011;4529;51.360;12.474;2022-09-12T01:15:37;10.40;;;7.50;;
8986;SDS011;4529;51.360;12.474;2022-09-12T01:31:36;11.07;;;7.13;;
8986;SDS011;4529;51.360;12.474;2022-09-12T01:36:46;10.83;;;7.50;;
8986;SDS011;4529;51.360;12.474;2022-09-12T01:41:48;11.70;;;7.33;;
8986;SDS011;4529;51.360;12.474;2022-09-12T01:47:09;11.83;;;7.40;;
8986;SDS011;4529;51.360;12.474;2022-09-12T01:52:16;11.10;;;7.57;;
8986;SDS011;4529;51.360;12.474;2022-09-12T01:57:24;12.40;;;7.40;;
8986;SDS011;4529;51.360;12.474;2022-09-12T02:02:32;10.60;;;7.47;;
8986;SDS011;4529;51.360;12.474;2022-09-12T02:07:36;11.47;;;7.70;;
8986;SDS011;4529;51.360;12.474;2022-09-12T02:12:51;10.13;;;7.27;;
8986;SDS011;4529;51.360;12.474;2022-09-12T02:17:55;11.33;;;7.57;;
8986;SDS011;4529;51.360;12.474;2022-09-12T02:22:59;11.00;;;7.67;;
8986;SDS011;4529;51.360;12.474;2022-09-12T02:28:05;10.03;;;7.87;;
8986;SDS011;4529;51.360;12.474;2022-09-12T02:33:43;10.00;;;7.90;;
8986;SDS011;4529;51.360;12.474;2022-09-12T02:38:19;12.33;;;7.93;;
8986;SDS011;4529;51.360;12.474;2022-09-12T02:43:34;10.73;;;7.83;;
8986;SDS011;4529;51.360;12.474;2022-09-12T02:48:39;9.13;;;7.13;;
8986;SDS011;4529;51.360;12.474;2022-09-12T02:53:42;11.33;;;7.90;;
8986;SDS011;4529;51.360;12.474;2022-09-12T02:58:45;12.33;;;7.53;;
8986;SDS011;4529;51.360;12.474;2022-09-12T03:03:52;10.10;;;7.80;;
8986;SDS011;4529;51.360;12.474;2022-09-12T03:19:31;9.80;;;7.63;;
8986;SDS011;4529;51.360;12.474;2022-09-12T03:25:35;9.53;;;7.27;;
8986;SDS011;4529;51.360;12.474;2022-09-12T03:30:19;11.60;;;7.97;;
8986;SDS011;4529;51.360;12.474;2022-09-12T03:35:23;11.93;;;7.67;;
8986;SDS011;4529;51.360;12.474;2022-09-12T03:40:26;10.47;;;7.60;;
8986;SDS011;4529;51.360;12.474;2022-09-12T03:45:29;9.47;;;7.40;;
8986;SDS011;4529;51.360;12.474;2022-09-12T03:50:32;10.40;;;7.40;;
8986;SDS011;4529;51.360;12.474;2022-09-12T03:55:37;10.83;;;7.93;;
8986;SDS011;4529;51.360;12.474;2022-09-12T04:00:42;11.77;;;7.70;;
8986;SDS011;4529;51.360;12.474;2022-09-12T04:05:45;9.80;;;7.70;;
8986;SDS011;4529;51.360;12.474;2022-09-12T04:10:49;9.23;;;7.20;;
8986;SDS011;4529;51.360;12.474;2022-09-12T04:15:57;10.83;;;7.63;;
8986;SDS011;4529;51.360;12.474;2022-09-12T04:21:06;10.27;;;7.40;;
8986;SDS011;4529;51.360;12.474;2022-09-12T04:26:09;9.87;;;7.50;;
8986;SDS011;4529;51.360;12.474;2022-09-12T04:31:17;10.33;;;7.43;;
8986;SDS011;4529;51.360;12.474;2022-09-12T04:36:20;11.53;;;7.50;;
8986;SDS011;4529;51.360;12.474;2022-09-12T04:41:24;8.90;;;6.67;;
8986;SDS011;4529;51.360;12.474;2022-09-12T04:46:27;10.33;;;7.60;;
8986;SDS011;4529;51.360;12.474;2022-09-12T04:51:32;9.53;;;7.37;;
8986;SDS011;4529;51.360;12.474;2022-09-12T04:56:38;11.23;;;7.70;;
8986;SDS011;4529;51.360;12.474;2022-09-12T05:01:41;9.70;;;7.93;;
8986;SDS011;4529;51.360;12.474;2022-09-12T05:06:45;14.03;;;8.80;;
8986;SDS011;4529;51.360;12.474;2022-09-12T05:11:49;12.53;;;8.83;;
8986;SDS011;4529;51.360;12.474;2022-09-12T05:16:53;12.13;;;8.47;;
8986;SDS011;4529;51.360;12.474;2022-09-12T05:21:57;11.73;;;8.03;;
8986;SDS011;4529;51.360;12.474;2022-09-12T05:27:00;12.37;;;8.57;;
8986;SDS011;4529;51.360;12.474;2022-09-12T05:32:04;13.90;;;9.23;;
8986;SDS011;4529;51.360;12.474;2022-09-12T05:37:07;15.63;;;9.63;;
8986;SDS011;4529;51.360;12.474;2022-09-12T05:42:11;13.97;;;9.17;;
8986;SDS011;4529;51.360;12.474;2022-09-12T05:47:14;22.07;;;10.10;;
8986;SDS011;4529;51.360;12.474;2022-09-12T05:52:18;22.10;;;9.93;;
8986;SDS011;4529;51.360;12.474;2022-09-12T05:57:21;21.90;;;10.67;;
8986;SDS011;4529;51.360;12.474;2022-09-12T06:02:25;19.73;;;9.70;;
8986;SDS011;4529;51.360;12.474;2022-09-12T06:07:30;14.53;;;9.70;;
8986;SDS011;4529;51.360;12.474;2022-09-12T06:12:34;13.97;;;7.97;;
8986;SDS011;4529;51.360;12.474;2022-09-12T06:17:38;17.23;;;8.67;;
8986;SDS011;4529;51.360;12.474;2022-09-12T06:22:41;14.17;;;8.57;;
8986;SDS011;4529;51.360;12.474;2022-09-12T06:27:45;14.90;;;9.20;;
8986;SDS011;4529;51.360;12.474;2022-09-12T06:32:48;14.73;;;8.80;;
8986;SDS011;4529;51.360;12.474;2022-09-12T06:37:52;14.33;;;9.47;;
8986;SDS011;4529;51.360;12.474;2022-09-12T06:42:55;14.17;;;8.63;;
8986;SDS011;4529;51.360;12.474;2022-09-12T06:47:59;16.47;;;9.60;;
8986;SDS011;4529;51.360;12.474;2022-09-12T06:53:04;17.00;;;9.83;;
8986;SDS011;4529;51.360;12.474;2022-09-12T06:58:08;13.63;;;9.73;;
8986;SDS011;4529;51.360;12.474;2022-09-12T07:03:12;13.30;;;8.53;;
8986;SDS011;4529;51.360;12.474;2022-09-12T07:08:15;14.30;;;8.93;;
8986;SDS011;4529;51.360;12.474;2022-09-12T07:13:19;12.47;;;8.70;;
8986;SDS011;4529;51.360;12.474;2022-09-12T07:18:22;13.73;;;8.93;;
8986;SDS011;4529;51.360;12.474;2022-09-12T07:23:28;13.67;;;9.47;;
8986;SDS011;4529;51.360;12.474;2022-09-12T07:28:34;12.10;;;8.03;;
8986;SDS011;4529;51.360;12.474;2022-09-12T07:33:38;18.07;;;9.50;;
8986;SDS011;4529;51.360;12.474;2022-09-12T07:38:43;10.37;;;7.90;;
8986;SDS011;4529;51.360;12.474;2022-09-12T07:43:46;13.03;;;8.60;;
8986;SDS011;4529;51.360;12.474;2022-09-12T07:48:52;12.60;;;8.23;;
8986;SDS011;4529;51.360;12.474;2022-09-12T07:53:56;12.17;;;8.37;;
8986;SDS011;4529;51.360;12.474;2022-09-12T07:59:00;12.60;;;8.20;;
8986;SDS011;4529;51.360;12.474;2022-09-12T08:04:04;12.60;;;8.37;;
8986;SDS011;4529;51.360;12.474;2022-09-12T08:09:08;9.53;;;7.80;;
8986;SDS011;4529;51.360;12.474;2022-09-12T08:14:13;9.27;;;6.97;;
8986;SDS011;4529;51.360;12.474;2022-09-12T08:19:17;11.80;;;6.93;;
8986;SDS011;4529;51.360;12.474;2022-09-12T08:24:21;8.67;;;6.83;;
8986;SDS011;4529;51.360;12.474;2022-09-12T08:29:25;9.83;;;6.57;;
8986;SDS011;4529;51.360;12.474;2022-09-12T08:34:29;9.67;;;6.70;;
8986;SDS011;4529;51.360;12.474;2022-09-12T08:39:33;11.13;;;7.60;;
8986;SDS011;4529;51.360;12.474;2022-09-12T08:44:47;12.27;;;6.50;;
8986;SDS011;4529;51.360;12.474;2022-09-12T09:06:17;7.63;;;6.40;;
8986;SDS011;4529;51.360;12.474;2022-09-12T09:11:24;7.67;;;5.33;;
8986;SDS011;4529;51.360;12.474;2022-09-12T09:16:39;7.93;;;5.60;;
8986;SDS011;4529;51.360;12.474;2022-09-12T09:21:51;7.77;;;5.23;;
8986;SDS011;4529;51.360;12.474;2022-09-12T09:27:00;5.20;;;4.70;;
8986;SDS011;4529;51.360;12.474;2022-09-12T09:32:03;5.17;;;4.30;;
8986;SDS011;4529;51.360;12.474;2022-09-12T09:42:38;4.80;;;4.30;;
8986;SDS011;4529;51.360;12.474;2022-09-12T09:47:48;4.93;;;4.00;;
8986;SDS011;4529;51.360;12.474;2022-09-12T09:53:33;4.03;;;3.70;;
8986;SDS011;4529;51.360;12.474;2022-09-12T09:58:34;3.47;;;3.17;;
8986;SDS011;4529;51.360;12.474;2022-09-12T10:03:38;4.33;;;3.33;;
8986;SDS011;4529;51.360;12.474;2022-09-12T10:08:41;3.47;;;3.10;;
8986;SDS011;4529;51.360;12.474;2022-09-12T10:13:52;3.97;;;2.97;;
8986;SDS011;4529;51.360;12.474;2022-09-12T10:18:55;3.57;;;3.27;;
8986;SDS011;4529;51.360;12.474;2022-09-12T10:24:05;3.30;;;3.03;;
8986;SDS011;4529;51.360;12.474;2022-09-12T10:29:14;4.13;;;3.73;;
8986;SDS011;4529;51.360;12.474;2022-09-12T10:34:22;4.10;;;3.67;;
8986;SDS011;4529;51.360;12.474;2022-09-12T10:39:24;3.87;;;3.57;;
8986;SDS011;4529;51.360;12.474;2022-09-12T10:44:28;4.77;;;3.60;;
8986;SDS011;4529;51.360;12.474;2022-09-12T10:49:31;4.23;;;3.60;;
8986;SDS011;4529;51.360;12.474;2022-09-12T10:54:34;3.70;;;3.10;;
8986;SDS011;4529;51.360;12.474;2022-09-12T10:59:41;3.27;;;3.07;;
8986;SDS011;4529;51.360;12.474;2022-09-12T11:05:06;2.80;;;2.60;;
8986;SDS011;4529;51.360;12.474;2022-09-12T11:10:26;2.87;;;2.67;;
8986;SDS011;4529;51.360;12.474;2022-09-12T11:16:00;3.27;;;2.97;;
8986;SDS011;4529;51.360;12.474;2022-09-12T11:21:21;3.20;;;3.00;;
8986;SDS011;4529;51.360;12.474;2022-09-12T11:37:07;3.30;;;3.03;;
8986;SDS011;4529;51.360;12.474;2022-09-12T11:42:28;2.60;;;2.40;;
8986;SDS011;4529;51.360;12.474;2022-09-12T11:47:31;3.00;;;2.80;;
8986;SDS011;4529;51.360;12.474;2022-09-12T11:52:36;2.80;;;2.60;;
8986;SDS011;4529;51.360;12.474;2022-09-12T11:57:41;3.03;;;2.77;;
8986;SDS011;4529;51.360;12.474;2022-09-12T12:03:02;4.23;;;2.60;;
8986;SDS011;4529;51.360;12.474;2022-09-12T12:08:23;2.97;;;2.77;;
8986;SDS011;4529;51.360;12.474;2022-09-12T12:13:30;3.70;;;2.90;;
8986;SDS011;4529;51.360;12.474;2022-09-12T12:18:55;3.10;;;2.70;;
8986;SDS011;4529;51.360;12.474;2022-09-12T12:24:02;2.90;;;2.70;;
8986;SDS011;4529;51.360;12.474;2022-09-12T12:29:11;3.13;;;2.90;;
8986;SDS011;4529;51.360;12.474;2022-09-12T12:34:21;2.70;;;2.50;;
8986;SDS011;4529;51.360;12.474;2022-09-12T12:49:54;3.43;;;3.13;;
8986;SDS011;4529;51.360;12.474;2022-09-12T12:54:55;3.53;;;2.80;;
8986;SDS011;4529;51.360;12.474;2022-09-12T13:00:04;3.03;;;2.80;;
8986;SDS011;4529;51.360;12.474;2022-09-12T13:05:15;3.60;;;3.30;;
8986;SDS011;4529;51.360;12.474;2022-09-12T13:10:25;3.67;;;3.37;;
8986;SDS011;4529;51.360;12.474;2022-09-12T13:20:46;3.27;;;2.97;;
8986;SDS011;4529;51.360;12.474;2022-09-12T13:25:54;4.53;;;3.13;;
8986;SDS011;4529;51.360;12.474;2022-09-12T13:47:30;3.13;;;2.90;;
8986;SDS011;4529;51.360;12.474;2022-09-12T13:52:41;3.70;;;2.83;;
8986;SDS011;4529;51.360;12.474;2022-09-12T13:57:44;3.10;;;2.90;;
8986;SDS011;4529;51.360;12.474;2022-09-12T14:02:48;3.10;;;2.90;;
8986;SDS011;4529;51.360;12.474;2022-09-12T14:07:56;2.73;;;2.63;;
8986;SDS011;4529;51.360;12.474;2022-09-12T14:13:01;3.03;;;2.83;;
8986;SDS011;4529;51.360;12.474;2022-09-12T14:18:05;3.30;;;2.73;;
8986;SDS011;4529;51.360;12.474;2022-09-12T14:23:16;3.67;;;3.23;;
8986;SDS011;4529;51.360;12.474;2022-09-12T14:28:26;3.33;;;2.70;;
8986;SDS011;4529;51.360;12.474;2022-09-12T14:33:32;2.90;;;2.70;;
8986;SDS011;4529;51.360;12.474;2022-09-12T14:38:49;4.13;;;2.80;;
8986;SDS011;4529;51.360;12.474;2022-09-12T14:43:53;2.67;;;2.47;;
8986;SDS011;4529;51.360;12.474;2022-09-12T14:49:11;3.23;;;2.80;;
8986;SDS011;4529;51.360;12.474;2022-09-12T14:59:34;4.03;;;3.00;;
8986;SDS011;4529;51.360;12.474;2022-09-12T15:04:45;2.90;;;2.57;;
8986;SDS011;4529;51.360;12.474;2022-09-12T15:09:45;2.80;;;2.57;;
8986;SDS011;4529;51.360;12.474;2022-09-12T15:14:49;2.57;;;2.47;;
8986;SDS011;4529;51.360;12.474;2022-09-12T15:19:53;2.60;;;2.40;;
8986;SDS011;4529;51.360;12.474;2022-09-12T15:24:57;2.87;;;2.47;;
8986;SDS011;4529;51.360;12.474;2022-09-12T15:30:01;2.70;;;2.50;;
8986;SDS011;4529;51.360;12.474;2022-09-12T15:35:23;2.80;;;2.60;;
8986;SDS011;4529;51.360;12.474;2022-09-12T15:40:26;3.30;;;3.10;;
8986;SDS011;4529;51.360;12.474;2022-09-12T15:45:31;4.73;;;2.70;;
8986;SDS011;4529;51.360;12.474;2022-09-12T15:50:34;2.47;;;2.27;;
8986;SDS011;4529;51.360;12.474;2022-09-12T15:55:38;2.83;;;2.60;;
8986;SDS011;4529;51.360;12.474;2022-09-12T16:00:42;2.50;;;2.30;;
8986;SDS011;4529;51.360;12.474;2022-09-12T16:05:46;4.50;;;2.60;;
8986;SDS011;4529;51.360;12.474;2022-09-12T16:10:51;4.67;;;4.23;;
8986;SDS011;4529;51.360;12.474;2022-09-12T16:15:56;9.93;;;7.47;;
8986;SDS011;4529;51.360;12.474;2022-09-12T16:21:00;7.43;;;5.43;;
8986;SDS011;4529;51.360;12.474;2022-09-12T16:26:04;2.83;;;2.63;;
8986;SDS011;4529;51.360;12.474;2022-09-12T16:31:09;2.60;;;2.40;;
8986;SDS011;4529;51.360;12.474;2022-09-12T16:36:13;2.47;;;2.27;;
8986;SDS011;4529;51.360;12.474;2022-09-12T16:41:17;2.80;;;2.60;;
8986;SDS011;4529;51.360;12.474;2022-09-12T16:46:24;2.60;;;2.40;;
8986;SDS011;4529;51.360;12.474;2022-09-12T16:51:29;2.43;;;2.30;;
8986;SDS011;4529;51.360;12.474;2022-09-12T16:56:33;2.70;;;2.50;;
8986;SDS011;4529;51.360;12.474;2022-09-12T17:01:36;3.53;;;2.60;;
8986;SDS011;4529;51.360;12.474;2022-09-12T17:06:39;3.20;;;2.87;;
8986;SDS011;4529;51.360;12.474;2022-09-12T17:11:44;3.00;;;2.80;;
8986;SDS011;4529;51.360;12.474;2022-09-12T17:16:46;2.80;;;2.60;;
8986;SDS011;4529;51.360;12.474;2022-09-12T17:21:50;2.83;;;2.63;;
8986;SDS011;4529;51.360;12.474;2022-09-12T17:26:53;2.97;;;2.77;;
8986;SDS011;4529;51.360;12.474;2022-09-12T17:31:57;3.53;;;2.60;;
8986;SDS011;4529;51.360;12.474;2022-09-12T17:37:00;2.97;;;2.40;;
8986;SDS011;4529;51.360;12.474;2022-09-12T17:42:04;2.77;;;2.57;;
8986;SDS011;4529;51.360;12.474;2022-09-12T17:47:07;3.10;;;2.83;;
8986;SDS011;4529;51.360;12.474;2022-09-12T17:52:11;2.87;;;2.67;;
8986;SDS011;4529;51.360;12.474;2022-09-12T17:57:14;3.53;;;2.97;;
8986;SDS011;4529;51.360;12.474;2022-09-12T18:02:18;3.50;;;3.20;;
8986;SDS011;4529;51.360;12.474;2022-09-12T18:07:21;3.00;;;2.80;;
8986;SDS011;4529;51.360;12.474;2022-09-12T18:12:24;3.00;;;2.80;;
8986;SDS011;4529;51.360;12.474;2022-09-12T18:17:28;3.40;;;3.10;;
8986;SDS011;4529;51.360;12.474;2022-09-12T18:22:31;3.67;;;3.07;;
8986;SDS011;4529;51.360;12.474;2022-09-12T18:27:35;3.13;;;2.93;;
8986;SDS011;4529;51.360;12.474;2022-09-12T18:32:38;3.00;;;2.80;;
8986;SDS011;4529;51.360;12.474;2022-09-12T18:37:42;3.20;;;3.00;;
8986;SDS011;4529;51.360;12.474;2022-09-12T18:42:45;3.37;;;3.07;;
8986;SDS011;4529;51.360;12.474;2022-09-12T18:47:49;4.03;;;3.10;;
8986;SDS011;4529;51.360;12.474;2022-09-12T18:52:53;3.10;;;2.90;;
8986;SDS011;4529;51.360;12.474;2022-09-12T18:57:56;3.20;;;3.00;;
8986;SDS011;4529;51.360;12.474;2022-09-12T19:02:59;4.57;;;3.50;;
8986;SDS011;4529;51.360;12.474;2022-09-12T19:08:03;4.83;;;3.40;;
8986;SDS011;4529;51.360;12.474;2022-09-12T19:13:06;4.53;;;3.53;;
8986;SDS011;4529;51.360;12.474;2022-09-12T19:18:10;4.53;;;3.33;;
8986;SDS011;4529;51.360;12.474;2022-09-12T19:23:15;3.67;;;3.37;;
8986;SDS011;4529;51.360;12.474;2022-09-12T19:28:19;3.70;;;3.40;;
8986;SDS011;4529;51.360;12.474;2022-09-12T19:33:23;3.57;;;3.27;;
8986;SDS011;4529;51.360;12.474;2022-09-12T19:38:27;3.67;;;3.37;;
8986;SDS011;4529;51.360;12.474;2022-09-12T19:43:31;4.00;;;3.60;;
8986;SDS011;4529;51.360;12.474;2022-09-12T19:48:35;5.33;;;3.50;;
8986;SDS011;4529;51.360;12.474;2022-09-12T19:53:40;4.67;;;4.27;;
8986;SDS011;4529;51.360;12.474;2022-09-12T19:58:45;5.10;;;4.50;;
8986;SDS011;4529;51.360;12.474;2022-09-12T20:03:48;4.90;;;4.40;;
8986;SDS011;4529;51.360;12.474;2022-09-12T20:08:52;4.57;;;4.17;;
8986;SDS011;4529;51.360;12.474;2022-09-12T20:13:56;5.13;;;4.63;;
8986;SDS011;4529;51.360;12.474;2022-09-12T20:19:01;5.33;;;4.47;;
8986;SDS011;4529;51.360;12.474;2022-09-12T20:24:06;5.03;;;4.20;;
8986;SDS011;4529;51.360;12.474;2022-09-12T20:29:08;4.17;;;3.87;;
8986;SDS011;4529;51.360;12.474;2022-09-12T20:34:13;4.23;;;3.83;;
8986;SDS011;4529;51.360;12.474;2022-09-12T20:39:16;3.90;;;3.60;;
8986;SDS011;4529;51.360;12.474;2022-09-12T20:44:19;3.87;;;3.53;;
8986;SDS011;4529;51.360;12.474;2022-09-12T20:49:22;4.13;;;3.73;;
8986;SDS011;4529;51.360;12.474;2022-09-12T20:54:26;3.87;;;3.57;;
8986;SDS011;4529;51.360;12.474;2022-09-12T20:59:30;3.93;;;3.53;;
8986;SDS011;4529;51.360;12.474;2022-09-12T21:04:34;4.80;;;3.47;;
8986;SDS011;4529;51.360;12.474;2022-09-12T21:09:38;4.10;;;3.70;;
8986;SDS011;4529;51.360;12.474;2022-09-12T21:14:42;6.03;;;3.87;;
8986;SDS011;4529;51.360;12.474;2022-09-12T21:19:46;4.37;;;3.80;;
8986;SDS011;4529;51.360;12.474;2022-09-12T21:24:50;4.67;;;4.10;;
8986;SDS011;4529;51.360;12.474;2022-09-12T21:29:54;5.10;;;4.50;;
8986;SDS011;4529;51.360;12.474;2022-09-12T21:34:59;4.77;;;4.37;;
8986;SDS011;4529;51.360;12.474;2022-09-12T21:40:03;4.70;;;4.20;;
8986;SDS011;4529;51.360;12.474;2022-09-12T21:45:07;4.60;;;4.20;;
8986;SDS011;4529;51.360;12.474;2022-09-12T21:50:11;7.07;;;3.90;;
8986;SDS011;4529;51.360;12.474;2022-09-12T21:55:15;4.93;;;3.93;;
8986;SDS011;4529;51.360;12.474;2022-09-12T22:00:19;5.23;;;3.93;;
8986;SDS011;4529;51.360;12.474;2022-09-12T22:05:22;4.60;;;3.50;;
8986;SDS011;4529;51.360;12.474;2022-09-12T22:10:26;4.27;;;3.83;;
8986;SDS011;4529;51.360;12.474;2022-09-12T22:15:29;3.70;;;3.40;;
8986;SDS011;4529;51.360;12.474;2022-09-12T22:20:33;5.33;;;3.40;;
8986;SDS011;4529;51.360;12.474;2022-09-12T22:25:36;3.83;;;3.53;;
8986;SDS011;4529;51.360;12.474;2022-09-12T22:30:40;3.27;;;3.07;;
8986;SDS011;4529;51.360;12.474;2022-09-12T22:35:43;5.10;;;3.40;;
8986;SDS011;4529;51.360;12.474;2022-09-12T22:40:46;5.70;;;3.43;;
8986;SDS011;4529;51.360;12.474;2022-09-12T22:45:50;3.83;;;3.53;;
8986;SDS011;4529;51.360;12.474;2022-09-12T22:50:53;4.33;;;3.40;;
8986;SDS011;4529;51.360;12.474;2022-09-12T22:55:57;3.50;;;3.30;;
8986;SDS011;4529;51.360;12.474;2022-09-12T23:01:00;4.30;;;3.40;;
8986;SDS011;4529;51.360;12.474;2022-09-12T23:06:04;5.23;;;3.77;;
8986;SDS011;4529;51.360;12.474;2022-09-12T23:11:08;3.63;;;3.33;;
8986;SDS011;4529;51.360;12.474;2022-09-12T23:16:20;4.30;;;3.90;;
8986;SDS011;4529;51.360;12.474;2022-09-12T23:21:20;4.00;;;3.53;;
8986;SDS011;4529;51.360;12.474;2022-09-12T23:26:24;4.27;;;3.87;;
8986;SDS011;4529;51.360;12.474;2022-09-12T23:31:29;5.60;;;4.00;;
8986;SDS011;4529;51.360;12.474;2022-09-12T23:36:30;3.80;;;3.50;;
8986;SDS011;4529;51.360;12.474;2022-09-12T23:41:34;3.87;;;3.57;;
8986;SDS011;4529;51.360;12.474;2022-09-12T23:46:37;4.20;;;3.83;;
8986;SDS011;4529;51.360;12.474;2022-09-12T23:51:41;4.23;;;3.90;;
8986;SDS011;4529;51.360;12.474;2022-09-12T23:56:44;4.23;;;3.83;;
